sensor_id;sensor_type;location;lat;lon;timestamp;P1;durP1;ratioP1;P2;durP2;ratioP2
54201;SDS011;40108;53.152;5.844;2024-02-15T00:01:54;80.97;;;24.63;;
54201;SDS011;40108;53.152;5.844;2024-02-15T00:04:20;87.35;;;24.48;;
54201;SDS011;40108;53.152;5.844;2024-02-15T00:06:46;61.67;;;21.35;;
54201;SDS011;40108;53.152;5.844;2024-02-15T00:09:12;78.38;;;23.98;;
54201;SDS011;40108;53.152;5.844;2024-02-15T00:11:39;70.72;;;21.50;;
54201;SDS011;40108;53.152;5.844;2024-02-15T00:14:04;78.95;;;20.92;;
54201;SDS011;40108;53.152;5.844;2024-02-15T00:16:31;81.90;;;22.27;;
54201;SDS011;40108;53.152;5.844;2024-02-15T00:18:56;63.95;;;21.02;;
54201;SDS011;40108;53.152;5.844;2024-02-15T00:21:24;73.03;;;21.35;;
54201;SDS011;40108;53.152;5.844;2024-02-15T00:23:50;73.03;;;20.30;;
54201;SDS011;40108;53.152;5.844;2024-02-15T00:26:16;58.10;;;18.52;;
54201;SDS011;40108;53.152;5.844;2024-02-15T00:28:41;59.70;;;19.00;;
54201;SDS011;40108;53.152;5.844;2024-02-15T00:31:07;63.30;;;19.33;;
54201;SDS011;40108;53.152;5.844;2024-02-15T00:33:33;61.22;;;19.63;;
54201;SDS011;40108;53.152;5.844;2024-02-15T00:36:02;66.53;;;18.00;;
54201;SDS011;40108;53.152;5.844;2024-02-15T00:38:29;60.45;;;18.20;;
54201;SDS011;40108;53.152;5.844;2024-02-15T00:40:56;58.42;;;16.48;;
54201;SDS011;40108;53.152;5.844;2024-02-15T00:43:24;66.78;;;16.60;;
54201;SDS011;40108;53.152;5.844;2024-02-15T00:45:51;63.25;;;15.88;;
54201;SDS011;40108;53.152;5.844;2024-02-15T00:48:17;62.45;;;15.88;;
54201;SDS011;40108;53.152;5.844;2024-02-15T00:50:42;47.58;;;14.27;;
54201;SDS011;40108;53.152;5.844;2024-02-15T00:53:08;50.90;;;14.40;;
54201;SDS011;40108;53.152;5.844;2024-02-15T00:55:34;64.53;;;15.45;;
54201;SDS011;40108;53.152;5.844;2024-02-15T00:57:59;49.03;;;13.85;;
54201;SDS011;40108;53.152;5.844;2024-02-15T01:00:25;44.75;;;13.73;;
54201;SDS011;40108;53.152;5.844;2024-02-15T01:02:51;47.15;;;13.60;;
54201;SDS011;40108;53.152;5.844;2024-02-15T01:05:18;46.58;;;13.45;;
54201;SDS011;40108;53.152;5.844;2024-02-15T01:07:44;55.03;;;13.45;;
54201;SDS011;40108;53.152;5.844;2024-02-15T01:10:10;49.05;;;12.68;;
54201;SDS011;40108;53.152;5.844;2024-02-15T01:12:35;51.25;;;12.75;;
54201;SDS011;40108;53.152;5.844;2024-02-15T01:15:01;46.72;;;12.65;;
54201;SDS011;40108;53.152;5.844;2024-02-15T01:17:27;45.20;;;12.20;;
54201;SDS011;40108;53.152;5.844;2024-02-15T01:19:54;47.00;;;12.43;;
54201;SDS011;40108;53.152;5.844;2024-02-15T01:22:20;41.88;;;12.30;;
54201;SDS011;40108;53.152;5.844;2024-02-15T01:24:48;42.72;;;12.00;;
54201;SDS011;40108;53.152;5.844;2024-02-15T01:27:14;49.70;;;12.70;;
54201;SDS011;40108;53.152;5.844;2024-02-15T01:29:40;34.40;;;11.70;;
54201;SDS011;40108;53.152;5.844;2024-02-15T01:32:07;56.05;;;13.55;;
54201;SDS011;40108;53.152;5.844;2024-02-15T01:34:33;50.55;;;13.48;;
54201;SDS011;40108;53.152;5.844;2024-02-15T01:36:59;33.28;;;12.77;;
54201;SDS011;40108;53.152;5.844;2024-02-15T01:39:25;47.28;;;12.50;;
54201;SDS011;40108;53.152;5.844;2024-02-15T01:41:51;41.40;;;12.73;;
54201;SDS011;40108;53.152;5.844;2024-02-15T01:44:20;48.10;;;14.55;;
54201;SDS011;40108;53.152;5.844;2024-02-15T01:46:49;43.15;;;12.35;;
54201;SDS011;40108;53.152;5.844;2024-02-15T01:49:17;46.47;;;13.88;;
54201;SDS011;40108;53.152;5.844;2024-02-15T01:51:43;49.85;;;13.50;;
54201;SDS011;40108;53.152;5.844;2024-02-15T01:54:10;62.47;;;14.13;;
54201;SDS011;40108;53.152;5.844;2024-02-15T01:56:37;55.22;;;14.90;;
54201;SDS011;40108;53.152;5.844;2024-02-15T01:59:03;40.97;;;13.15;;
54201;SDS011;40108;53.152;5.844;2024-02-15T02:01:30;45.03;;;13.20;;
54201;SDS011;40108;53.152;5.844;2024-02-15T02:03:58;45.58;;;14.30;;
54201;SDS011;40108;53.152;5.844;2024-02-15T02:06:25;37.40;;;12.52;;
54201;SDS011;40108;53.152;5.844;2024-02-15T02:08:51;46.30;;;12.50;;
54201;SDS011;40108;53.152;5.844;2024-02-15T02:11:19;51.88;;;13.55;;
54201;SDS011;40108;53.152;5.844;2024-02-15T02:13:45;40.55;;;13.05;;
54201;SDS011;40108;53.152;5.844;2024-02-15T02:16:27;50.42;;;13.07;;
54201;SDS011;40108;53.152;5.844;2024-02-15T02:18:57;40.35;;;12.02;;
54201;SDS011;40108;53.152;5.844;2024-02-15T02:21:23;56.55;;;15.35;;
54201;SDS011;40108;53.152;5.844;2024-02-15T02:23:57;53.72;;;13.48;;
54201;SDS011;40108;53.152;5.844;2024-02-15T02:26:23;44.38;;;13.25;;
54201;SDS011;40108;53.152;5.844;2024-02-15T02:28:50;47.70;;;14.00;;
54201;SDS011;40108;53.152;5.844;2024-02-15T02:31:20;54.78;;;15.15;;
54201;SDS011;40108;53.152;5.844;2024-02-15T02:33:49;53.10;;;17.40;;
54201;SDS011;40108;53.152;5.844;2024-02-15T02:36:19;53.72;;;17.25;;
54201;SDS011;40108;53.152;5.844;2024-02-15T02:38:45;68.20;;;19.02;;
54201;SDS011;40108;53.152;5.844;2024-02-15T02:41:11;55.17;;;19.38;;
54201;SDS011;40108;53.152;5.844;2024-02-15T02:43:39;59.70;;;20.38;;
54201;SDS011;40108;53.152;5.844;2024-02-15T02:46:06;77.53;;;23.48;;
54201;SDS011;40108;53.152;5.844;2024-02-15T02:48:32;70.60;;;23.00;;
54201;SDS011;40108;53.152;5.844;2024-02-15T02:50:57;81.28;;;24.38;;
54201;SDS011;40108;53.152;5.844;2024-02-15T02:53:23;74.95;;;23.60;;
54201;SDS011;40108;53.152;5.844;2024-02-15T02:55:49;73.57;;;22.85;;
54201;SDS011;40108;53.152;5.844;2024-02-15T02:58:16;66.25;;;20.85;;
54201;SDS011;40108;53.152;5.844;2024-02-15T03:00:42;68.30;;;21.45;;
54201;SDS011;40108;53.152;5.844;2024-02-15T03:03:07;58.42;;;20.85;;
54201;SDS011;40108;53.152;5.844;2024-02-15T03:05:34;60.22;;;20.10;;
54201;SDS011;40108;53.152;5.844;2024-02-15T03:08:00;61.42;;;18.33;;
54201;SDS011;40108;53.152;5.844;2024-02-15T03:10:26;76.03;;;19.17;;
54201;SDS011;40108;53.152;5.844;2024-02-15T03:12:51;75.85;;;18.00;;
54201;SDS011;40108;53.152;5.844;2024-02-15T03:15:17;59.47;;;16.88;;
54201;SDS011;40108;53.152;5.844;2024-02-15T03:17:43;57.60;;;17.65;;
54201;SDS011;40108;53.152;5.844;2024-02-15T03:20:11;57.40;;;17.55;;
54201;SDS011;40108;53.152;5.844;2024-02-15T03:22:50;51.33;;;16.85;;
54201;SDS011;40108;53.152;5.844;2024-02-15T03:25:15;49.38;;;16.20;;
54201;SDS011;40108;53.152;5.844;2024-02-15T03:27:41;54.42;;;16.30;;
54201;SDS011;40108;53.152;5.844;2024-02-15T03:30:07;50.45;;;14.65;;
54201;SDS011;40108;53.152;5.844;2024-02-15T03:32:32;51.60;;;13.77;;
54201;SDS011;40108;53.152;5.844;2024-02-15T03:34:58;46.78;;;12.63;;
54201;SDS011;40108;53.152;5.844;2024-02-15T03:37:26;38.67;;;12.07;;
54201;SDS011;40108;53.152;5.844;2024-02-15T03:39:52;39.45;;;11.65;;
54201;SDS011;40108;53.152;5.844;2024-02-15T03:42:18;38.05;;;12.30;;
54201;SDS011;40108;53.152;5.844;2024-02-15T03:44:43;56.45;;;12.48;;
54201;SDS011;40108;53.152;5.844;2024-02-15T03:47:09;44.22;;;12.80;;
54201;SDS011;40108;53.152;5.844;2024-02-15T03:49:38;36.90;;;11.57;;
54201;SDS011;40108;53.152;5.844;2024-02-15T03:52:04;43.55;;;12.50;;
54201;SDS011;40108;53.152;5.844;2024-02-15T03:54:30;55.55;;;12.88;;
54201;SDS011;40108;53.152;5.844;2024-02-15T03:56:56;41.47;;;12.27;;
54201;SDS011;40108;53.152;5.844;2024-02-15T03:59:22;37.03;;;12.35;;
54201;SDS011;40108;53.152;5.844;2024-02-15T04:01:55;47.08;;;12.93;;
54201;SDS011;40108;53.152;5.844;2024-02-15T04:04:21;50.20;;;13.15;;
54201;SDS011;40108;53.152;5.844;2024-02-15T04:06:50;55.92;;;14.93;;
54201;SDS011;40108;53.152;5.844;2024-02-15T04:09:17;51.85;;;15.95;;
54201;SDS011;40108;53.152;5.844;2024-02-15T04:11:43;58.97;;;17.35;;
54201;SDS011;40108;53.152;5.844;2024-02-15T04:14:12;57.90;;;17.73;;
54201;SDS011;40108;53.152;5.844;2024-02-15T04:16:38;58.78;;;18.90;;
54201;SDS011;40108;53.152;5.844;2024-02-15T04:19:04;45.20;;;17.38;;
54201;SDS011;40108;53.152;5.844;2024-02-15T04:21:30;55.67;;;19.98;;
54201;SDS011;40108;53.152;5.844;2024-02-15T04:23:56;47.35;;;18.73;;
54201;SDS011;40108;53.152;5.844;2024-02-15T04:26:22;52.15;;;19.52;;
54201;SDS011;40108;53.152;5.844;2024-02-15T04:28:52;51.00;;;19.80;;
54201;SDS011;40108;53.152;5.844;2024-02-15T04:31:18;51.95;;;21.02;;
54201;SDS011;40108;53.152;5.844;2024-02-15T04:33:45;50.50;;;20.35;;
54201;SDS011;40108;53.152;5.844;2024-02-15T04:36:14;43.53;;;20.38;;
54201;SDS011;40108;53.152;5.844;2024-02-15T04:38:43;52.03;;;20.13;;
54201;SDS011;40108;53.152;5.844;2024-02-15T04:41:09;48.58;;;18.80;;
54201;SDS011;40108;53.152;5.844;2024-02-15T04:43:35;40.75;;;18.48;;
54201;SDS011;40108;53.152;5.844;2024-02-15T04:46:03;43.58;;;16.45;;
54201;SDS011;40108;53.152;5.844;2024-02-15T04:48:32;41.03;;;16.80;;
54201;SDS011;40108;53.152;5.844;2024-02-15T04:50:59;47.88;;;19.48;;
54201;SDS011;40108;53.152;5.844;2024-02-15T04:53:26;44.15;;;18.95;;
54201;SDS011;40108;53.152;5.844;2024-02-15T04:55:54;38.35;;;16.88;;
54201;SDS011;40108;53.152;5.844;2024-02-15T04:58:20;42.30;;;17.40;;
54201;SDS011;40108;53.152;5.844;2024-02-15T05:00:46;46.45;;;19.05;;
54201;SDS011;40108;53.152;5.844;2024-02-15T05:03:13;43.15;;;18.38;;
54201;SDS011;40108;53.152;5.844;2024-02-15T05:05:39;40.50;;;19.42;;
54201;SDS011;40108;53.152;5.844;2024-02-15T05:08:05;38.88;;;18.08;;
54201;SDS011;40108;53.152;5.844;2024-02-15T05:10:30;47.00;;;20.50;;
54201;SDS011;40108;53.152;5.844;2024-02-15T05:12:56;40.33;;;20.10;;
54201;SDS011;40108;53.152;5.844;2024-02-15T05:15:26;40.50;;;19.90;;
54201;SDS011;40108;53.152;5.844;2024-02-15T05:17:51;44.67;;;19.35;;
54201;SDS011;40108;53.152;5.844;2024-02-15T05:20:18;45.58;;;20.17;;
54201;SDS011;40108;53.152;5.844;2024-02-15T05:22:46;38.42;;;18.67;;
54201;SDS011;40108;53.152;5.844;2024-02-15T05:25:11;44.70;;;20.80;;
54201;SDS011;40108;53.152;5.844;2024-02-15T05:27:37;47.83;;;21.15;;
54201;SDS011;40108;53.152;5.844;2024-02-15T05:30:03;38.80;;;18.85;;
54201;SDS011;40108;53.152;5.844;2024-02-15T05:32:36;43.15;;;20.70;;
54201;SDS011;40108;53.152;5.844;2024-02-15T05:35:07;36.55;;;18.90;;
54201;SDS011;40108;53.152;5.844;2024-02-15T05:37:34;38.67;;;19.40;;
54201;SDS011;40108;53.152;5.844;2024-02-15T05:40:00;32.25;;;18.02;;
54201;SDS011;40108;53.152;5.844;2024-02-15T05:42:25;41.72;;;20.02;;
54201;SDS011;40108;53.152;5.844;2024-02-15T05:44:52;42.95;;;18.75;;
54201;SDS011;40108;53.152;5.844;2024-02-15T05:47:17;37.45;;;18.27;;
54201;SDS011;40108;53.152;5.844;2024-02-15T05:49:44;38.80;;;17.90;;
54201;SDS011;40108;53.152;5.844;2024-02-15T05:52:10;38.40;;;17.98;;
54201;SDS011;40108;53.152;5.844;2024-02-15T05:54:36;37.17;;;17.92;;
54201;SDS011;40108;53.152;5.844;2024-02-15T05:57:02;39.85;;;19.63;;
54201;SDS011;40108;53.152;5.844;2024-02-15T05:59:28;38.97;;;18.45;;
54201;SDS011;40108;53.152;5.844;2024-02-15T06:01:54;43.70;;;18.20;;
54201;SDS011;40108;53.152;5.844;2024-02-15T06:04:19;39.97;;;18.08;;
54201;SDS011;40108;53.152;5.844;2024-02-15T06:06:45;48.80;;;19.08;;
54201;SDS011;40108;53.152;5.844;2024-02-15T06:09:13;34.92;;;18.20;;
54201;SDS011;40108;53.152;5.844;2024-02-15T06:11:39;34.92;;;16.45;;
54201;SDS011;40108;53.152;5.844;2024-02-15T06:14:05;35.83;;;18.40;;
54201;SDS011;40108;53.152;5.844;2024-02-15T06:16:31;45.95;;;19.42;;
54201;SDS011;40108;53.152;5.844;2024-02-15T06:18:57;43.10;;;19.83;;
54201;SDS011;40108;53.152;5.844;2024-02-15T06:21:23;45.72;;;19.73;;
54201;SDS011;40108;53.152;5.844;2024-02-15T06:23:49;43.00;;;20.48;;
54201;SDS011;40108;53.152;5.844;2024-02-15T06:26:16;47.42;;;20.05;;
54201;SDS011;40108;53.152;5.844;2024-02-15T06:28:42;38.88;;;19.67;;
54201;SDS011;40108;53.152;5.844;2024-02-15T06:31:26;42.53;;;19.25;;
54201;SDS011;40108;53.152;5.844;2024-02-15T06:34:10;61.22;;;23.50;;
54201;SDS011;40108;53.152;5.844;2024-02-15T06:36:55;47.78;;;22.00;;
54201;SDS011;40108;53.152;5.844;2024-02-15T06:39:40;39.47;;;18.33;;
54201;SDS011;40108;53.152;5.844;2024-02-15T06:42:09;60.47;;;23.88;;
54201;SDS011;40108;53.152;5.844;2024-02-15T06:44:47;61.75;;;24.90;;
54201;SDS011;40108;53.152;5.844;2024-02-15T06:47:13;57.25;;;26.00;;
54201;SDS011;40108;53.152;5.844;2024-02-15T06:49:42;57.50;;;26.60;;
54201;SDS011;40108;53.152;5.844;2024-02-15T06:52:09;56.15;;;24.92;;
54201;SDS011;40108;53.152;5.844;2024-02-15T06:54:39;52.90;;;25.65;;
54201;SDS011;40108;53.152;5.844;2024-02-15T06:57:06;56.17;;;27.40;;
54201;SDS011;40108;53.152;5.844;2024-02-15T06:59:32;56.33;;;27.38;;
54201;SDS011;40108;53.152;5.844;2024-02-15T07:01:59;53.88;;;25.83;;
54201;SDS011;40108;53.152;5.844;2024-02-15T07:04:25;51.17;;;24.17;;
54201;SDS011;40108;53.152;5.844;2024-02-15T07:06:51;50.92;;;26.38;;
54201;SDS011;40108;53.152;5.844;2024-02-15T07:09:19;48.90;;;26.60;;
54201;SDS011;40108;53.152;5.844;2024-02-15T07:11:46;45.88;;;25.77;;
54201;SDS011;40108;53.152;5.844;2024-02-15T07:14:13;43.30;;;25.63;;
54201;SDS011;40108;53.152;5.844;2024-02-15T07:16:39;41.97;;;22.80;;
54201;SDS011;40108;53.152;5.844;2024-02-15T07:19:05;43.00;;;24.60;;
54201;SDS011;40108;53.152;5.844;2024-02-15T07:21:31;46.35;;;25.02;;
54201;SDS011;40108;53.152;5.844;2024-02-15T07:23:57;44.33;;;24.33;;
54201;SDS011;40108;53.152;5.844;2024-02-15T07:26:24;36.67;;;21.65;;
54201;SDS011;40108;53.152;5.844;2024-02-15T07:28:53;36.95;;;23.13;;
54201;SDS011;40108;53.152;5.844;2024-02-15T07:31:19;45.90;;;24.63;;
54201;SDS011;40108;53.152;5.844;2024-02-15T07:33:46;41.50;;;24.08;;
54201;SDS011;40108;53.152;5.844;2024-02-15T07:36:19;38.10;;;23.05;;
54201;SDS011;40108;53.152;5.844;2024-02-15T07:38:46;40.22;;;24.42;;
54201;SDS011;40108;53.152;5.844;2024-02-15T07:41:14;39.20;;;23.60;;
54201;SDS011;40108;53.152;5.844;2024-02-15T07:43:40;40.10;;;22.70;;
54201;SDS011;40108;53.152;5.844;2024-02-15T07:46:06;34.13;;;21.08;;
54201;SDS011;40108;53.152;5.844;2024-02-15T07:48:32;39.03;;;22.73;;
54201;SDS011;40108;53.152;5.844;2024-02-15T07:50:58;39.60;;;23.23;;
54201;SDS011;40108;53.152;5.844;2024-02-15T07:53:24;44.38;;;23.75;;
54201;SDS011;40108;53.152;5.844;2024-02-15T07:55:50;42.00;;;23.38;;
54201;SDS011;40108;53.152;5.844;2024-02-15T07:58:16;44.75;;;24.05;;
54201;SDS011;40108;53.152;5.844;2024-02-15T08:00:44;42.53;;;24.25;;
54201;SDS011;40108;53.152;5.844;2024-02-15T08:03:10;48.60;;;25.02;;
54201;SDS011;40108;53.152;5.844;2024-02-15T08:05:36;46.53;;;22.50;;
54201;SDS011;40108;53.152;5.844;2024-02-15T08:08:03;49.08;;;23.88;;
54201;SDS011;40108;53.152;5.844;2024-02-15T08:10:29;45.58;;;24.05;;
54201;SDS011;40108;53.152;5.844;2024-02-15T08:12:55;43.45;;;23.63;;
54201;SDS011;40108;53.152;5.844;2024-02-15T08:15:23;46.45;;;24.67;;
54201;SDS011;40108;53.152;5.844;2024-02-15T08:17:49;38.83;;;23.48;;
54201;SDS011;40108;53.152;5.844;2024-02-15T08:20:15;49.33;;;25.13;;
54201;SDS011;40108;53.152;5.844;2024-02-15T08:22:46;49.17;;;25.75;;
54201;SDS011;40108;53.152;5.844;2024-02-15T08:25:13;34.83;;;21.52;;
54201;SDS011;40108;53.152;5.844;2024-02-15T08:27:41;47.08;;;25.90;;
54201;SDS011;40108;53.152;5.844;2024-02-15T08:30:10;43.47;;;23.40;;
54201;SDS011;40108;53.152;5.844;2024-02-15T08:32:38;44.67;;;25.85;;
54201;SDS011;40108;53.152;5.844;2024-02-15T08:35:05;43.28;;;23.63;;
54201;SDS011;40108;53.152;5.844;2024-02-15T08:37:32;47.92;;;26.33;;
54201;SDS011;40108;53.152;5.844;2024-02-15T08:40:00;43.58;;;24.98;;
54201;SDS011;40108;53.152;5.844;2024-02-15T08:42:29;41.45;;;22.33;;
54201;SDS011;40108;53.152;5.844;2024-02-15T08:44:55;46.65;;;25.90;;
54201;SDS011;40108;53.152;5.844;2024-02-15T08:47:22;47.70;;;26.55;;
54201;SDS011;40108;53.152;5.844;2024-02-15T08:49:47;49.13;;;26.83;;
54201;SDS011;40108;53.152;5.844;2024-02-15T08:52:13;48.65;;;26.95;;
54201;SDS011;40108;53.152;5.844;2024-02-15T08:54:38;46.80;;;25.38;;
54201;SDS011;40108;53.152;5.844;2024-02-15T08:57:05;54.40;;;26.80;;
54201;SDS011;40108;53.152;5.844;2024-02-15T08:59:31;43.83;;;24.45;;
54201;SDS011;40108;53.152;5.844;2024-02-15T09:01:58;51.72;;;25.85;;
54201;SDS011;40108;53.152;5.844;2024-02-15T09:04:25;39.53;;;23.83;;
54201;SDS011;40108;53.152;5.844;2024-02-15T09:06:51;44.08;;;23.58;;
54201;SDS011;40108;53.152;5.844;2024-02-15T09:09:17;42.00;;;24.40;;
54201;SDS011;40108;53.152;5.844;2024-02-15T09:11:43;41.47;;;22.92;;
54201;SDS011;40108;53.152;5.844;2024-02-15T09:14:08;41.50;;;23.50;;
54201;SDS011;40108;53.152;5.844;2024-02-15T09:16:37;42.53;;;24.25;;
54201;SDS011;40108;53.152;5.844;2024-02-15T09:19:04;37.72;;;22.02;;
54201;SDS011;40108;53.152;5.844;2024-02-15T09:21:31;33.08;;;20.00;;
54201;SDS011;40108;53.152;5.844;2024-02-15T09:23:58;32.60;;;18.85;;
54201;SDS011;40108;53.152;5.844;2024-02-15T09:26:24;26.40;;;15.82;;
54201;SDS011;40108;53.152;5.844;2024-02-15T09:28:52;24.40;;;15.50;;
54201;SDS011;40108;53.152;5.844;2024-02-15T09:31:18;22.98;;;16.27;;
54201;SDS011;40108;53.152;5.844;2024-02-15T09:33:44;25.67;;;16.33;;
54201;SDS011;40108;53.152;5.844;2024-02-15T09:36:10;23.48;;;16.52;;
54201;SDS011;40108;53.152;5.844;2024-02-15T09:38:37;23.40;;;15.85;;
54201;SDS011;40108;53.152;5.844;2024-02-15T09:41:03;20.45;;;15.38;;
54201;SDS011;40108;53.152;5.844;2024-02-15T09:43:32;21.02;;;14.90;;
54201;SDS011;40108;53.152;5.844;2024-02-15T09:45:59;22.15;;;14.65;;
54201;SDS011;40108;53.152;5.844;2024-02-15T09:48:29;23.60;;;15.15;;
54201;SDS011;40108;53.152;5.844;2024-02-15T09:50:57;26.60;;;15.70;;
54201;SDS011;40108;53.152;5.844;2024-02-15T09:53:23;24.13;;;15.55;;
54201;SDS011;40108;53.152;5.844;2024-02-15T09:55:53;24.20;;;15.23;;
54201;SDS011;40108;53.152;5.844;2024-02-15T09:58:19;23.77;;;15.73;;
54201;SDS011;40108;53.152;5.844;2024-02-15T10:00:48;19.70;;;12.88;;
54201;SDS011;40108;53.152;5.844;2024-02-15T10:03:16;21.30;;;14.45;;
54201;SDS011;40108;53.152;5.844;2024-02-15T10:05:47;20.25;;;14.30;;
54201;SDS011;40108;53.152;5.844;2024-02-15T10:08:14;19.48;;;12.80;;
54201;SDS011;40108;53.152;5.844;2024-02-15T10:10:40;16.33;;;12.23;;
54201;SDS011;40108;53.152;5.844;2024-02-15T10:13:06;15.95;;;11.35;;
54201;SDS011;40108;53.152;5.844;2024-02-15T10:15:39;14.07;;;10.82;;
54201;SDS011;40108;53.152;5.844;2024-02-15T10:18:08;14.43;;;10.98;;
54201;SDS011;40108;53.152;5.844;2024-02-15T10:20:38;12.45;;;10.27;;
54201;SDS011;40108;53.152;5.844;2024-02-15T10:23:09;13.45;;;10.52;;
54201;SDS011;40108;53.152;5.844;2024-02-15T10:25:36;12.98;;;10.85;;
54201;SDS011;40108;53.152;5.844;2024-02-15T10:28:05;15.18;;;9.95;;
54201;SDS011;40108;53.152;5.844;2024-02-15T10:30:33;13.18;;;9.18;;
54201;SDS011;40108;53.152;5.844;2024-02-15T10:33:00;12.30;;;8.63;;
54201;SDS011;40108;53.152;5.844;2024-02-15T10:35:26;13.18;;;10.60;;
54201;SDS011;40108;53.152;5.844;2024-02-15T10:37:52;12.27;;;9.57;;
54201;SDS011;40108;53.152;5.844;2024-02-15T10:40:32;12.52;;;9.57;;
54201;SDS011;40108;53.152;5.844;2024-02-15T10:42:58;10.13;;;8.85;;
54201;SDS011;40108;53.152;5.844;2024-02-15T10:45:27;12.75;;;9.93;;
54201;SDS011;40108;53.152;5.844;2024-02-15T10:47:55;12.40;;;10.13;;
54201;SDS011;40108;53.152;5.844;2024-02-15T10:50:22;11.05;;;9.15;;
54201;SDS011;40108;53.152;5.844;2024-02-15T10:52:54;10.73;;;8.68;;
54201;SDS011;40108;53.152;5.844;2024-02-15T10:55:35;10.77;;;8.15;;
54201;SDS011;40108;53.152;5.844;2024-02-15T10:58:03;9.77;;;8.10;;
54201;SDS011;40108;53.152;5.844;2024-02-15T11:00:34;11.52;;;8.88;;
54201;SDS011;40108;53.152;5.844;2024-02-15T11:03:04;11.38;;;10.00;;
54201;SDS011;40108;53.152;5.844;2024-02-15T11:05:34;12.57;;;10.10;;
54201;SDS011;40108;53.152;5.844;2024-02-15T11:08:10;13.25;;;10.63;;
54201;SDS011;40108;53.152;5.844;2024-02-15T11:10:36;11.00;;;9.30;;
54201;SDS011;40108;53.152;5.844;2024-02-15T11:13:03;15.13;;;10.60;;
54201;SDS011;40108;53.152;5.844;2024-02-15T11:15:39;18.15;;;11.98;;
54201;SDS011;40108;53.152;5.844;2024-02-15T11:21:16;14.88;;;9.75;;
54201;SDS011;40108;53.152;5.844;2024-02-15T11:23:43;21.65;;;11.32;;
54201;SDS011;40108;53.152;5.844;2024-02-15T11:29:08;24.60;;;12.32;;
54201;SDS011;40108;53.152;5.844;2024-02-15T11:34:44;40.55;;;15.45;;
54201;SDS011;40108;53.152;5.844;2024-02-15T11:37:40;43.17;;;16.33;;
54201;SDS011;40108;53.152;5.844;2024-02-15T11:40:17;50.92;;;16.63;;
54201;SDS011;40108;53.152;5.844;2024-02-15T11:45:25;66.30;;;21.45;;
54201;SDS011;40108;53.152;5.844;2024-02-15T11:48:04;75.35;;;22.23;;
54201;SDS011;40108;53.152;5.844;2024-02-15T11:50:36;64.90;;;21.20;;
54201;SDS011;40108;53.152;5.844;2024-02-15T11:53:06;55.78;;;17.67;;
54201;SDS011;40108;53.152;5.844;2024-02-15T11:55:40;71.95;;;23.02;;
54201;SDS011;40108;53.152;5.844;2024-02-15T11:58:07;73.82;;;22.75;;
54201;SDS011;40108;53.152;5.844;2024-02-15T12:00:34;58.33;;;20.42;;
54201;SDS011;40108;53.152;5.844;2024-02-15T12:03:19;67.88;;;22.00;;
54201;SDS011;40108;53.152;5.844;2024-02-15T12:06:03;79.43;;;24.02;;
54201;SDS011;40108;53.152;5.844;2024-02-15T12:08:49;73.03;;;24.38;;
54201;SDS011;40108;53.152;5.844;2024-02-15T12:11:34;73.10;;;24.55;;
54201;SDS011;40108;53.152;5.844;2024-02-15T12:14:19;57.20;;;22.48;;
54201;SDS011;40108;53.152;5.844;2024-02-15T12:17:04;85.05;;;26.40;;
54201;SDS011;40108;53.152;5.844;2024-02-15T12:19:49;74.80;;;29.40;;
54201;SDS011;40108;53.152;5.844;2024-02-15T12:22:20;69.85;;;25.27;;
54201;SDS011;40108;53.152;5.844;2024-02-15T12:24:59;74.85;;;27.38;;
54201;SDS011;40108;53.152;5.844;2024-02-15T12:27:42;52.67;;;24.50;;
54201;SDS011;40108;53.152;5.844;2024-02-15T12:30:15;78.78;;;23.85;;
54201;SDS011;40108;53.152;5.844;2024-02-15T12:32:52;58.00;;;26.25;;
54201;SDS011;40108;53.152;5.844;2024-02-15T12:35:22;61.45;;;26.85;;
54201;SDS011;40108;53.152;5.844;2024-02-15T12:40:29;56.58;;;25.42;;
54201;SDS011;40108;53.152;5.844;2024-02-15T12:42:59;59.92;;;26.45;;
54201;SDS011;40108;53.152;5.844;2024-02-15T12:45:25;54.95;;;25.85;;
54201;SDS011;40108;53.152;5.844;2024-02-15T12:47:53;63.10;;;27.38;;
54201;SDS011;40108;53.152;5.844;2024-02-15T12:50:20;69.68;;;30.17;;
54201;SDS011;40108;53.152;5.844;2024-02-15T12:52:47;80.07;;;28.85;;
54201;SDS011;40108;53.152;5.844;2024-02-15T12:55:18;66.00;;;27.13;;
54201;SDS011;40108;53.152;5.844;2024-02-15T12:57:46;70.95;;;27.15;;
54201;SDS011;40108;53.152;5.844;2024-02-15T13:00:34;69.10;;;28.23;;
54201;SDS011;40108;53.152;5.844;2024-02-15T13:03:04;78.85;;;29.85;;
54201;SDS011;40108;53.152;5.844;2024-02-15T13:05:34;89.05;;;30.77;;
54201;SDS011;40108;53.152;5.844;2024-02-15T13:08:01;81.80;;;29.42;;
54201;SDS011;40108;53.152;5.844;2024-02-15T13:10:28;92.10;;;31.63;;
54201;SDS011;40108;53.152;5.844;2024-02-15T13:12:54;81.97;;;28.70;;
54201;SDS011;40108;53.152;5.844;2024-02-15T13:15:21;92.22;;;30.30;;
54201;SDS011;40108;53.152;5.844;2024-02-15T13:17:52;78.60;;;28.73;;
54201;SDS011;40108;53.152;5.844;2024-02-15T13:20:22;88.45;;;30.10;;
54201;SDS011;40108;53.152;5.844;2024-02-15T13:22:58;83.75;;;29.42;;
54201;SDS011;40108;53.152;5.844;2024-02-15T13:25:47;79.70;;;30.00;;
54201;SDS011;40108;53.152;5.844;2024-02-15T13:28:14;90.70;;;31.88;;
54201;SDS011;40108;53.152;5.844;2024-02-15T13:30:40;69.28;;;26.75;;
54201;SDS011;40108;53.152;5.844;2024-02-15T13:33:09;70.38;;;27.42;;
54201;SDS011;40108;53.152;5.844;2024-02-15T13:35:35;88.00;;;31.38;;
54201;SDS011;40108;53.152;5.844;2024-02-15T13:38:01;86.50;;;32.13;;
54201;SDS011;40108;53.152;5.844;2024-02-15T13:40:27;74.75;;;29.30;;
54201;SDS011;40108;53.152;5.844;2024-02-15T13:42:56;75.45;;;28.45;;
54201;SDS011;40108;53.152;5.844;2024-02-15T13:45:29;79.05;;;30.10;;
54201;SDS011;40108;53.152;5.844;2024-02-15T13:47:57;75.28;;;30.88;;
54201;SDS011;40108;53.152;5.844;2024-02-15T13:50:26;64.78;;;28.38;;
54201;SDS011;40108;53.152;5.844;2024-02-15T13:52:53;51.33;;;24.63;;
54201;SDS011;40108;53.152;5.844;2024-02-15T13:55:19;69.70;;;29.98;;
54201;SDS011;40108;53.152;5.844;2024-02-15T13:57:47;63.95;;;29.90;;
54201;SDS011;40108;53.152;5.844;2024-02-15T14:00:14;52.13;;;26.92;;
54201;SDS011;40108;53.152;5.844;2024-02-15T14:02:49;53.88;;;27.77;;
54201;SDS011;40108;53.152;5.844;2024-02-15T14:05:20;59.25;;;29.13;;
54201;SDS011;40108;53.152;5.844;2024-02-15T14:07:52;50.47;;;25.83;;
54201;SDS011;40108;53.152;5.844;2024-02-15T14:10:20;47.13;;;25.33;;
54201;SDS011;40108;53.152;5.844;2024-02-15T14:12:51;43.05;;;23.40;;
54201;SDS011;40108;53.152;5.844;2024-02-15T14:15:20;49.13;;;25.13;;
54201;SDS011;40108;53.152;5.844;2024-02-15T14:17:48;45.65;;;23.77;;
54201;SDS011;40108;53.152;5.844;2024-02-15T14:20:14;46.65;;;24.65;;
54201;SDS011;40108;53.152;5.844;2024-02-15T14:22:44;45.97;;;23.55;;
54201;SDS011;40108;53.152;5.844;2024-02-15T14:27:49;37.95;;;21.98;;
54201;SDS011;40108;53.152;5.844;2024-02-15T14:30:14;38.67;;;21.90;;
54201;SDS011;40108;53.152;5.844;2024-02-15T14:32:59;41.90;;;21.23;;
54201;SDS011;40108;53.152;5.844;2024-02-15T14:35:25;31.13;;;18.88;;
54201;SDS011;40108;53.152;5.844;2024-02-15T14:37:51;39.67;;;21.58;;
54201;SDS011;40108;53.152;5.844;2024-02-15T14:40:17;34.63;;;19.23;;
54201;SDS011;40108;53.152;5.844;2024-02-15T14:42:43;35.88;;;21.38;;
54201;SDS011;40108;53.152;5.844;2024-02-15T14:45:09;37.78;;;20.60;;